Suttons Bay, Michigan
Current Conditions -  °F | °C
As of 6:53 PM on Monday 22 Dec 2014 (Local Time) from KTVC Reporting Station
Overcast Overcast  
Wind Chill: 27°   Ceiling: 6000
Heat Index: 35°   Visibility: 10mi
Dew Point: 26°   Wind: 10mph
Humidity: 70%   Direction: 130°SE
Pressure: 29.89"   Gusts: 17mph
Location:  44.98°N, 85.65°W
Report Text: KTVC 222353Z 13009G15KT 10SM SCT049 OVC060 02/M03 A2989 RMK AO2 SLP128 4/001 T00171033 10033 20017 56006
Loading
Personal Weather Stations






























Interactive Weather Map New forecast layout! Learn more

10-Day Weather Forecast

Advertisements
Track Severe Weather on mobile